createdAt,value
2022-10-20T00:01:22.120Z,10.30
2022-10-20T00:02:53.772Z,9.63
2022-10-20T00:04:25.558Z,9.57
2022-10-20T00:06:06.422Z,10.15
2022-10-20T00:07:38.001Z,9.98
2022-10-20T00:09:09.729Z,10.07
2022-10-20T00:10:41.481Z,11.32
2022-10-20T00:12:13.112Z,9.55
2022-10-20T00:13:45.667Z,10.20
2022-10-20T00:15:17.480Z,9.60
2022-10-20T00:16:50.462Z,9.82
2022-10-20T00:18:22.387Z,9.05
2022-10-20T00:19:54.094Z,9.60
2022-10-20T00:21:27.027Z,11.15
2022-10-20T00:22:58.667Z,11.85
2022-10-20T00:24:30.311Z,12.32
2022-10-20T00:26:02.577Z,11.77
2022-10-20T00:27:34.203Z,11.15
2022-10-20T00:29:05.924Z,11.57
2022-10-20T00:30:37.832Z,11.23
2022-10-20T00:32:10.810Z,11.57
2022-10-20T00:33:42.447Z,10.73
2022-10-20T00:35:14.233Z,10.85
2022-10-20T00:36:50.310Z,11.18
2022-10-20T00:38:23.204Z,12.15
2022-10-20T00:39:54.808Z,11.63
2022-10-20T00:41:26.596Z,11.30
2022-10-20T00:42:58.223Z,11.23
2022-10-20T00:44:50.615Z,10.88
2022-10-20T00:46:23.501Z,10.70
2022-10-20T00:47:58.103Z,10.80
2022-10-20T00:49:29.740Z,9.93
2022-10-20T00:51:01.343Z,10.40
2022-10-20T00:52:33.262Z,11.57
2022-10-20T00:54:07.251Z,11.98
2022-10-20T00:55:40.715Z,10.98
2022-10-20T00:57:12.320Z,10.00
2022-10-20T00:58:43.972Z,10.57
2022-10-20T01:00:15.632Z,11.30
2022-10-20T01:01:47.308Z,10.20
2022-10-20T01:03:35.802Z,10.93
2022-10-20T01:05:08.490Z,11.75
2022-10-20T01:06:40.173Z,11.02
2022-10-20T01:08:11.835Z,11.40
2022-10-20T01:09:43.493Z,10.30
2022-10-20T01:11:19.877Z,11.25
2022-10-20T01:12:53.560Z,10.60
2022-10-20T01:14:31.175Z,10.85
2022-10-20T01:16:05.873Z,10.50
2022-10-20T01:17:42.521Z,10.05
2022-10-20T01:19:49.741Z,11.35
2022-10-20T01:21:27.674Z,11.07
2022-10-20T01:23:11.123Z,10.93
2022-10-20T01:24:48.068Z,9.27
2022-10-20T01:26:42.034Z,10.25
2022-10-20T01:28:16.363Z,11.02
2022-10-20T01:29:49.379Z,10.63
2022-10-20T01:31:31.881Z,11.32
2022-10-20T01:33:11.442Z,10.10
2022-10-20T01:34:49.234Z,12.45
2022-10-20T01:36:27.325Z,11.35
2022-10-20T01:38:04.481Z,11.38
2022-10-20T01:39:38.257Z,10.32
2022-10-20T01:41:10.747Z,11.80
2022-10-20T01:42:42.347Z,12.25
2022-10-20T01:44:15.601Z,12.10
2022-10-20T01:45:47.961Z,12.98
2022-10-20T01:47:19.581Z,11.93
2022-10-20T01:48:51.615Z,11.55
2022-10-20T01:50:23.270Z,11.40
2022-10-20T01:51:55.040Z,11.95
2022-10-20T01:53:26.684Z,12.48
2022-10-20T01:54:58.315Z,11.68
2022-10-20T01:56:33.443Z,12.07
2022-10-20T01:58:16.042Z,11.75
2022-10-20T01:59:54.446Z,10.30
2022-10-20T02:01:30.885Z,10.05
2022-10-20T02:03:10.657Z,10.60
2022-10-20T02:04:49.885Z,11.85
2022-10-20T02:06:31.882Z,9.40
2022-10-20T02:08:08.968Z,10.43
2022-10-20T02:09:41.434Z,14.32
2022-10-20T02:11:17.902Z,9.98
2022-10-20T02:12:50.841Z,10.80
2022-10-20T02:14:22.512Z,10.40
2022-10-20T02:15:56.941Z,12.48
2022-10-20T02:17:28.553Z,10.88
2022-10-20T02:19:00.394Z,11.82
2022-10-20T02:20:33.342Z,10.80
2022-10-20T02:22:04.997Z,11.05
2022-10-20T02:23:37.852Z,10.63
2022-10-20T02:25:10.674Z,10.18
2022-10-20T02:26:42.374Z,10.57
2022-10-20T02:28:13.967Z,11.27
2022-10-20T02:29:47.155Z,11.32
2022-10-20T02:31:20.304Z,10.88
2022-10-20T02:32:52.818Z,13.07
2022-10-20T02:34:25.648Z,11.45
2022-10-20T02:35:58.308Z,11.73
2022-10-20T02:37:29.889Z,11.88
2022-10-20T02:39:01.487Z,11.32
2022-10-20T02:40:33.096Z,12.20
2022-10-20T02:42:04.718Z,11.43
2022-10-20T02:43:36.316Z,11.63
2022-10-20T02:45:08.908Z,13.55
2022-10-20T02:46:41.880Z,11.68
2022-10-20T02:48:13.482Z,10.30
2022-10-20T02:49:45.104Z,10.02
2022-10-20T02:51:17.421Z,9.93
2022-10-20T02:52:49.108Z,11.02
2022-10-20T02:54:20.947Z,11.88
2022-10-20T02:55:52.628Z,11.88
2022-10-20T02:57:24.332Z,11.68
2022-10-20T02:58:55.908Z,11.57
2022-10-20T03:00:30.994Z,11.48
2022-10-20T03:02:03.987Z,12.85
2022-10-20T03:03:35.628Z,11.90
2022-10-20T03:05:07.767Z,11.93
2022-10-20T03:06:39.436Z,11.45
2022-10-20T03:08:11.082Z,10.68
2022-10-20T03:09:44.175Z,10.55
2022-10-20T03:11:15.751Z,9.60
2022-10-20T03:12:47.348Z,9.98
2022-10-20T03:14:18.981Z,11.07
2022-10-20T03:15:50.555Z,11.02
2022-10-20T03:17:23.632Z,10.80
2022-10-20T03:18:58.741Z,11.60
2022-10-20T03:20:33.255Z,11.43
2022-10-20T03:22:04.840Z,13.13
2022-10-20T03:23:36.401Z,12.13
2022-10-20T03:25:08.064Z,11.70
2022-10-20T03:26:39.652Z,12.82
2022-10-20T03:28:11.270Z,12.60
2022-10-20T03:29:42.864Z,11.73
2022-10-20T03:31:14.466Z,11.40
2022-10-20T03:32:47.588Z,11.18
2022-10-20T03:34:19.176Z,10.65
2022-10-20T03:35:50.804Z,14.98
2022-10-20T03:37:22.421Z,12.52
2022-10-20T03:38:54.037Z,11.07
2022-10-20T03:40:25.702Z,11.88
2022-10-20T03:41:57.899Z,11.85
2022-10-20T03:43:29.479Z,10.73
2022-10-20T03:45:01.086Z,11.57
2022-10-20T03:46:32.716Z,10.50
2022-10-20T03:48:06.209Z,11.00
2022-10-20T03:49:37.877Z,11.95
2022-10-20T03:51:10.521Z,10.63
2022-10-20T03:52:42.177Z,10.45
2022-10-20T03:54:13.779Z,11.02
2022-10-20T03:55:45.398Z,11.18
2022-10-20T03:57:17.005Z,14.75
2022-10-20T03:58:48.644Z,13.25
2022-10-20T04:00:20.598Z,12.07
2022-10-20T04:01:52.216Z,13.05
2022-10-20T04:03:25.179Z,13.88
2022-10-20T04:04:56.880Z,11.82
2022-10-20T04:06:28.578Z,12.98
2022-10-20T04:08:00.273Z,12.63
2022-10-20T04:09:31.887Z,12.32
2022-10-20T04:11:03.572Z,12.35
2022-10-20T04:12:35.423Z,11.95
2022-10-20T04:14:07.264Z,11.73
2022-10-20T04:15:38.880Z,12.10
2022-10-20T04:17:10.480Z,13.15
2022-10-20T04:18:43.459Z,11.68
2022-10-20T04:20:15.042Z,12.30
2022-10-20T04:21:46.719Z,12.68
2022-10-20T04:23:18.347Z,11.43
2022-10-20T04:24:49.964Z,11.63
2022-10-20T04:26:21.573Z,13.27
2022-10-20T04:27:53.153Z,14.45
2022-10-20T04:29:24.892Z,12.98
2022-10-20T04:30:59.271Z,11.25
2022-10-20T04:32:30.925Z,12.10
2022-10-20T04:34:03.910Z,13.40
2022-10-20T04:35:35.646Z,13.15
2022-10-20T04:37:07.331Z,12.20
2022-10-20T04:38:38.943Z,11.25
2022-10-20T04:40:11.504Z,12.88
2022-10-20T04:41:43.156Z,15.63
2022-10-20T04:43:14.820Z,16.27
2022-10-20T04:44:46.593Z,15.18
2022-10-20T04:46:18.322Z,16.05
2022-10-20T04:47:49.904Z,14.07
2022-10-20T04:49:23.074Z,18.17
2022-10-20T04:51:00.476Z,17.65
2022-10-20T04:52:32.138Z,18.52
2022-10-20T04:55:35.464Z,17.05
2022-10-20T04:57:07.079Z,16.10
2022-10-20T04:58:38.657Z,17.63
2022-10-20T05:00:11.185Z,16.92
2022-10-20T05:01:42.842Z,14.85
2022-10-20T05:03:14.526Z,17.40
2022-10-20T05:04:47.779Z,16.40
2022-10-20T05:06:20.208Z,16.08
2022-10-20T05:07:51.814Z,18.45
2022-10-20T05:09:23.428Z,15.93
2022-10-20T05:10:55.050Z,14.40
2022-10-20T05:12:27.930Z,19.75
2022-10-20T05:13:59.672Z,18.38
2022-10-20T05:15:31.294Z,15.30
2022-10-20T05:17:05.240Z,16.50
2022-10-20T05:18:39.632Z,18.90
2022-10-20T05:20:12.622Z,17.65
2022-10-20T05:21:44.285Z,21.50
2022-10-20T05:23:15.899Z,18.48
2022-10-20T05:24:47.547Z,18.50
2022-10-20T05:26:19.246Z,17.38
2022-10-20T05:27:50.857Z,17.75
2022-10-20T05:29:22.529Z,22.13
2022-10-20T05:30:55.648Z,22.50
2022-10-20T05:32:29.513Z,17.50
2022-10-20T05:34:01.230Z,16.20
2022-10-20T05:35:34.192Z,16.45
2022-10-20T05:37:05.776Z,16.85
2022-10-20T05:38:37.648Z,17.05
2022-10-20T05:40:10.363Z,16.73
2022-10-20T05:41:41.971Z,16.58
2022-10-20T05:43:15.867Z,16.33
2022-10-20T05:44:47.676Z,16.98
2022-10-20T05:46:19.444Z,17.70
2022-10-20T05:47:51.059Z,16.98
2022-10-20T05:49:23.518Z,16.33
2022-10-20T05:50:56.473Z,16.70
2022-10-20T05:52:28.087Z,15.10
2022-10-20T05:53:59.782Z,14.88
2022-10-20T05:55:31.471Z,15.80
2022-10-20T05:57:03.357Z,16.27
2022-10-20T05:58:35.075Z,14.85
2022-10-20T06:00:08.082Z,16.10
2022-10-20T06:01:49.027Z,17.65
2022-10-20T06:03:23.758Z,15.05
2022-10-20T06:05:00.624Z,19.73
2022-10-20T06:06:33.648Z,16.90
2022-10-20T06:08:05.585Z,16.42
2022-10-20T06:09:37.522Z,15.00
2022-10-20T06:11:10.090Z,14.20
2022-10-20T06:12:41.696Z,14.13
2022-10-20T06:14:13.429Z,18.15
2022-10-20T06:15:47.547Z,16.45
2022-10-20T06:17:19.179Z,14.73
2022-10-20T06:18:50.798Z,15.73
2022-10-20T06:20:22.410Z,14.90
2022-10-20T06:21:55.459Z,15.10
2022-10-20T06:23:27.040Z,15.52
2022-10-20T06:24:58.649Z,15.20
2022-10-20T06:26:32.826Z,14.85
2022-10-20T06:28:04.681Z,14.73
2022-10-20T06:29:36.280Z,14.55
2022-10-20T06:31:12.013Z,13.98
2022-10-20T06:32:43.661Z,16.38
2022-10-20T06:34:15.996Z,14.73
2022-10-20T06:35:47.595Z,16.23
2022-10-20T06:37:20.589Z,16.52
2022-10-20T06:38:55.608Z,17.88
2022-10-20T06:40:27.218Z,19.17
2022-10-20T06:41:58.853Z,21.70
2022-10-20T06:43:33.300Z,21.73
2022-10-20T06:45:05.992Z,19.15
2022-10-20T06:46:37.794Z,19.30
2022-10-20T06:48:09.385Z,19.08
2022-10-20T06:49:41.019Z,17.85
2022-10-20T06:51:13.530Z,18.63
2022-10-20T06:52:46.492Z,17.70
2022-10-20T06:54:18.161Z,20.75
2022-10-20T06:55:55.840Z,21.00
2022-10-20T06:57:27.424Z,20.30
2022-10-20T06:58:59.310Z,21.23
2022-10-20T07:02:02.529Z,21.33
2022-10-20T07:03:35.087Z,18.48
2022-10-20T07:05:07.610Z,18.27
2022-10-20T07:06:40.358Z,18.30
2022-10-20T07:08:13.281Z,18.75
2022-10-20T07:09:44.881Z,18.88
2022-10-20T07:11:17.489Z,21.33
2022-10-20T07:12:49.146Z,21.23
2022-10-20T07:14:21.058Z,19.52
2022-10-20T07:15:53.333Z,17.98
2022-10-20T07:17:24.895Z,22.45
2022-10-20T07:18:57.346Z,19.83
2022-10-20T07:20:28.999Z,18.60
2022-10-20T07:22:00.738Z,19.77
2022-10-20T07:23:34.239Z,23.35
2022-10-20T07:25:07.194Z,24.27
2022-10-20T07:26:39.662Z,22.17
2022-10-20T07:28:11.375Z,20.63
2022-10-20T07:29:43.043Z,20.83
2022-10-20T07:31:15.887Z,19.73
2022-10-20T07:32:47.527Z,20.77
2022-10-20T07:34:25.843Z,20.23
2022-10-20T07:35:58.269Z,21.58
2022-10-20T07:37:29.873Z,21.23
2022-10-20T07:39:04.313Z,19.90
2022-10-20T07:40:35.941Z,19.58
2022-10-20T07:42:07.529Z,18.58
2022-10-20T07:43:39.318Z,21.88
2022-10-20T07:45:11.255Z,20.17
2022-10-20T07:46:42.911Z,19.15
2022-10-20T07:48:14.541Z,19.70
2022-10-20T07:49:46.163Z,20.15
2022-10-20T07:51:30.339Z,20.98
2022-10-20T07:53:01.945Z,18.42
2022-10-20T07:54:35.102Z,18.55
2022-10-20T07:56:07.049Z,18.17
2022-10-20T07:57:38.730Z,18.08
2022-10-20T07:59:10.698Z,17.48
2022-10-20T08:00:42.410Z,17.88
2022-10-20T08:02:15.747Z,18.48
2022-10-20T08:03:47.569Z,20.92
2022-10-20T08:05:19.224Z,18.67
2022-10-20T08:06:50.835Z,18.75
2022-10-20T08:08:22.464Z,17.00
2022-10-20T08:09:55.403Z,18.33
2022-10-20T08:11:27.025Z,17.73
2022-10-20T08:12:58.591Z,20.58
2022-10-20T08:14:35.105Z,18.02
2022-10-20T08:16:09.243Z,19.38
2022-10-20T08:17:40.972Z,21.95
2022-10-20T08:19:21.731Z,20.88
2022-10-20T08:20:53.295Z,19.95
2022-10-20T08:22:24.993Z,20.35
2022-10-20T08:23:56.642Z,20.05
2022-10-20T08:25:29.624Z,20.60
2022-10-20T08:27:01.316Z,19.98
2022-10-20T08:28:33.352Z,20.80
2022-10-20T08:30:22.846Z,19.33
2022-10-20T08:31:55.303Z,19.50
2022-10-20T08:33:26.964Z,20.30
2022-10-20T08:34:58.592Z,20.30
2022-10-20T08:36:30.208Z,20.05
2022-10-20T08:38:01.865Z,19.42
2022-10-20T08:39:33.597Z,20.98
2022-10-20T08:41:12.419Z,22.25
2022-10-20T08:42:47.064Z,23.25
2022-10-20T08:44:21.775Z,20.63
2022-10-20T08:45:53.359Z,20.60
2022-10-20T08:47:29.168Z,21.25
2022-10-20T08:49:05.531Z,22.45
2022-10-20T08:50:37.178Z,21.95
2022-10-20T08:52:09.782Z,22.48
2022-10-20T08:53:41.438Z,21.15
2022-10-20T08:55:23.494Z,22.25
2022-10-20T08:56:56.486Z,21.05
2022-10-20T08:58:28.168Z,28.58
2022-10-20T09:00:05.704Z,21.45
2022-10-20T09:01:39.868Z,20.60
2022-10-20T09:03:14.585Z,22.92
2022-10-20T09:04:48.023Z,22.15
2022-10-20T09:06:19.635Z,39.63
2022-10-20T09:07:51.456Z,25.00
2022-10-20T09:09:23.185Z,25.73
2022-10-20T09:10:55.225Z,36.35
2022-10-20T09:12:31.034Z,23.60
2022-10-20T09:14:02.875Z,23.08
2022-10-20T09:15:34.499Z,25.98
2022-10-20T09:17:09.118Z,23.60
2022-10-20T09:18:43.050Z,22.52
2022-10-20T09:20:17.545Z,36.50
2022-10-20T09:21:51.270Z,27.17
2022-10-20T09:23:40.542Z,30.27
2022-10-20T09:25:13.431Z,25.25
2022-10-20T09:26:58.079Z,25.25
2022-10-20T09:28:42.891Z,24.48
2022-10-20T09:30:20.920Z,24.55
2022-10-20T09:31:54.173Z,25.05
2022-10-20T09:33:28.990Z,23.25
2022-10-20T09:35:12.359Z,25.10
2022-10-20T09:36:43.984Z,23.33
2022-10-20T09:38:17.746Z,24.10
2022-10-20T09:39:55.218Z,21.15
2022-10-20T09:41:29.416Z,21.58
2022-10-20T09:43:02.727Z,20.80
2022-10-20T09:44:39.701Z,21.90
2022-10-20T09:46:11.308Z,20.77
2022-10-20T09:47:43.385Z,30.05
2022-10-20T09:49:25.298Z,27.25
2022-10-20T09:50:57.122Z,27.67
2022-10-20T09:52:35.057Z,36.72
2022-10-20T09:54:08.119Z,43.25
2022-10-20T09:55:42.348Z,70.53
2022-10-20T09:57:17.275Z,45.25
2022-10-20T09:58:48.904Z,33.15
2022-10-20T10:00:36.257Z,31.25
2022-10-20T10:02:27.276Z,27.98
2022-10-20T10:04:02.199Z,31.20
2022-10-20T10:05:34.256Z,27.00
2022-10-20T10:07:10.950Z,34.17
2022-10-20T10:08:44.801Z,39.17
2022-10-20T10:10:24.824Z,50.40
2022-10-20T10:12:00.714Z,23.25
2022-10-20T10:13:42.457Z,26.05
2022-10-20T10:15:26.697Z,25.17
2022-10-20T10:16:58.389Z,23.65
2022-10-20T10:18:30.054Z,29.33
2022-10-20T10:20:01.701Z,20.67
2022-10-20T10:21:43.689Z,21.00
2022-10-20T10:23:22.009Z,24.23
2022-10-20T10:24:55.951Z,20.52
2022-10-20T10:26:35.055Z,22.60
2022-10-20T10:28:20.870Z,20.85
2022-10-20T10:29:52.787Z,19.63
2022-10-20T10:31:26.208Z,21.77
2022-10-20T10:32:57.874Z,23.50
2022-10-20T10:34:40.720Z,21.40
2022-10-20T10:36:15.845Z,19.88
2022-10-20T10:37:47.489Z,19.60
2022-10-20T10:39:19.114Z,19.05
2022-10-20T10:40:54.691Z,18.50
2022-10-20T10:42:46.420Z,19.20
2022-10-20T10:44:22.576Z,18.20
2022-10-20T10:45:56.752Z,18.23
2022-10-20T10:47:44.454Z,18.40
2022-10-20T10:49:42.121Z,19.90
2022-10-20T10:51:19.018Z,19.85
2022-10-20T10:52:53.377Z,19.05
2022-10-20T10:54:32.080Z,19.20
2022-10-20T10:57:45.202Z,19.63
2022-10-20T10:59:20.431Z,23.00
2022-10-20T11:00:58.497Z,19.10
2022-10-20T11:02:58.370Z,20.38
2022-10-20T11:04:53.379Z,20.60
2022-10-20T11:06:27.492Z,18.95
2022-10-20T11:08:04.425Z,21.13
2022-10-20T11:09:38.827Z,20.98
2022-10-20T11:11:16.509Z,20.08
2022-10-20T11:12:59.870Z,19.30
2022-10-20T11:14:35.787Z,21.52
2022-10-20T11:16:15.525Z,20.63
2022-10-20T11:17:50.570Z,20.33
2022-10-20T11:19:37.255Z,19.65
2022-10-20T11:21:18.416Z,20.40
2022-10-20T11:23:01.269Z,21.27
2022-10-20T11:24:43.481Z,21.13
2022-10-20T11:26:19.180Z,19.90
2022-10-20T11:27:50.752Z,18.25
2022-10-20T11:29:27.201Z,20.55
2022-10-20T11:30:59.133Z,18.92
2022-10-20T11:32:33.541Z,18.58
2022-10-20T11:34:06.712Z,20.60
2022-10-20T11:35:42.726Z,19.10
2022-10-20T11:37:18.115Z,19.58
2022-10-20T11:38:50.863Z,19.58
2022-10-20T11:40:23.135Z,19.63
2022-10-20T11:41:58.280Z,20.75
2022-10-20T11:43:32.604Z,19.52
2022-10-20T11:45:22.109Z,20.27
2022-10-20T11:46:54.936Z,20.75
2022-10-20T11:48:29.778Z,20.30
2022-10-20T11:50:03.411Z,20.75
2022-10-20T11:52:07.299Z,19.80
2022-10-20T11:53:55.506Z,20.88
2022-10-20T11:55:34.991Z,19.48
2022-10-20T11:57:12.180Z,20.92
2022-10-20T11:59:01.451Z,19.88
2022-10-20T12:00:39.538Z,19.60
2022-10-20T12:02:20.961Z,18.65
2022-10-20T12:04:11.537Z,19.17
2022-10-20T12:05:54.518Z,18.48
2022-10-20T12:07:36.679Z,21.58
2022-10-20T12:09:27.457Z,20.10
2022-10-20T12:11:02.752Z,20.23
2022-10-20T12:12:36.542Z,20.83
2022-10-20T12:14:12.907Z,19.88
2022-10-20T12:15:45.353Z,19.55
2022-10-20T12:17:39.858Z,19.88
2022-10-20T12:19:16.227Z,20.17
2022-10-20T12:20:49.450Z,20.38
2022-10-20T12:22:41.326Z,20.65
2022-10-20T12:24:32.840Z,21.95
2022-10-20T12:26:04.558Z,21.20
2022-10-20T12:27:36.245Z,21.15
2022-10-20T12:29:40.456Z,20.65
2022-10-20T12:31:12.125Z,20.02
2022-10-20T12:32:58.423Z,20.90
2022-10-20T12:34:30.085Z,21.55
2022-10-20T12:36:14.101Z,20.90
2022-10-20T12:37:54.057Z,20.40
2022-10-20T12:39:28.129Z,20.13
2022-10-20T12:41:01.501Z,19.05
2022-10-20T12:42:33.987Z,18.80
2022-10-20T12:44:06.093Z,20.08
2022-10-20T12:45:40.655Z,19.67
2022-10-20T12:47:18.890Z,19.10
2022-10-20T12:48:56.609Z,19.67
2022-10-20T12:50:31.680Z,20.02
2022-10-20T12:52:03.996Z,19.42
2022-10-20T12:53:35.747Z,20.98
2022-10-20T12:55:08.763Z,21.48
2022-10-20T12:56:41.798Z,21.23
2022-10-20T12:58:30.894Z,20.83
2022-10-20T13:00:04.098Z,21.20
2022-10-20T13:02:09.211Z,21.55
2022-10-20T13:03:44.020Z,20.92
2022-10-20T13:05:46.129Z,20.65
2022-10-20T13:07:40.300Z,19.75
2022-10-20T13:09:33.018Z,20.45
2022-10-20T13:11:33.455Z,20.58
2022-10-20T13:13:42.988Z,20.98
2022-10-20T13:15:14.613Z,21.27
2022-10-20T13:16:47.550Z,21.70
2022-10-20T13:18:21.840Z,21.85
2022-10-20T13:20:01.295Z,21.40
2022-10-20T13:21:34.359Z,22.20
2022-10-20T13:23:06.003Z,21.30
2022-10-20T13:24:42.687Z,22.85
2022-10-20T13:26:20.035Z,21.83
2022-10-20T13:27:51.638Z,20.63
2022-10-20T13:29:27.756Z,21.13
2022-10-20T13:31:15.253Z,21.40
2022-10-20T13:33:10.814Z,20.67
2022-10-20T13:34:45.533Z,21.73
2022-10-20T13:36:32.797Z,20.30
2022-10-20T13:38:06.904Z,18.58
2022-10-20T13:39:43.614Z,19.58
2022-10-20T13:41:18.036Z,18.15
2022-10-20T13:42:55.551Z,19.70
2022-10-20T13:44:32.062Z,19.58
2022-10-20T13:46:14.010Z,22.42
2022-10-20T13:47:48.583Z,18.92
2022-10-20T13:49:32.136Z,19.70
2022-10-20T13:51:04.510Z,20.05
2022-10-20T13:52:39.162Z,20.35
2022-10-20T13:54:15.885Z,18.27
2022-10-20T13:55:55.768Z,18.95
2022-10-20T13:57:28.065Z,18.25
2022-10-20T13:59:05.264Z,19.77
2022-10-20T14:00:39.015Z,17.85
2022-10-20T14:02:23.418Z,18.83
2022-10-20T14:03:55.131Z,19.00
2022-10-20T14:05:27.367Z,19.42
2022-10-20T14:07:02.537Z,18.27
2022-10-20T14:08:42.676Z,18.48
2022-10-20T14:10:21.827Z,18.58
2022-10-20T14:11:55.040Z,19.95
2022-10-20T14:13:28.595Z,20.27
2022-10-20T14:15:02.214Z,18.73
2022-10-20T14:16:37.628Z,19.13
2022-10-20T14:18:20.531Z,18.77
2022-10-20T14:19:58.930Z,18.83
2022-10-20T14:21:30.680Z,18.67
2022-10-20T14:23:02.442Z,20.00
2022-10-20T14:24:35.197Z,20.38
2022-10-20T14:26:07.517Z,21.75
2022-10-20T14:27:39.440Z,21.55
2022-10-20T14:29:12.548Z,21.95
2022-10-20T14:30:44.204Z,23.73
2022-10-20T14:32:18.268Z,22.58
2022-10-20T14:33:51.015Z,24.00
2022-10-20T14:35:26.962Z,24.38
2022-10-20T14:36:58.699Z,22.27
2022-10-20T14:38:31.840Z,22.83
2022-10-20T14:40:05.105Z,23.73
2022-10-20T14:41:36.819Z,24.02
2022-10-20T14:43:13.326Z,23.65
2022-10-20T14:44:44.999Z,25.10
2022-10-20T14:46:24.038Z,24.50
2022-10-20T14:47:58.581Z,24.30
2022-10-20T14:49:31.435Z,24.75
2022-10-20T14:51:03.612Z,24.77
2022-10-20T14:52:37.289Z,24.27
2022-10-20T14:54:17.191Z,24.65
2022-10-20T14:55:48.862Z,22.42
2022-10-20T14:57:32.165Z,24.00
2022-10-20T14:59:03.762Z,22.85
2022-10-20T15:00:35.823Z,25.20
2022-10-20T15:02:11.804Z,26.70
2022-10-20T15:03:45.100Z,22.48
2022-10-20T15:05:21.225Z,26.05
2022-10-20T15:07:02.412Z,23.63
2022-10-20T15:08:34.044Z,22.60
2022-10-20T15:10:06.815Z,22.90
2022-10-20T15:11:38.450Z,23.20
2022-10-20T15:13:23.669Z,22.45
2022-10-20T15:15:03.659Z,29.77
2022-10-20T15:16:41.343Z,28.30
2022-10-20T15:18:14.757Z,24.75
2022-10-20T15:19:47.763Z,22.88
2022-10-20T15:21:19.365Z,25.30
2022-10-20T15:22:53.427Z,25.65
2022-10-20T15:24:27.601Z,25.50
2022-10-20T15:26:00.352Z,24.60
2022-10-20T15:27:32.043Z,27.35
2022-10-20T15:29:04.332Z,26.48
2022-10-20T15:30:36.015Z,26.38
2022-10-20T15:32:08.384Z,27.42
2022-10-20T15:33:40.108Z,26.35
2022-10-20T15:35:13.983Z,26.33
2022-10-20T15:36:47.642Z,24.15
2022-10-20T15:38:22.714Z,27.25
2022-10-20T15:39:54.337Z,26.98
2022-10-20T15:41:27.001Z,23.92
2022-10-20T15:42:58.630Z,24.92
2022-10-20T15:44:30.807Z,24.20
2022-10-20T15:46:02.689Z,23.02
2022-10-20T15:47:34.316Z,22.52
2022-10-20T15:49:05.957Z,23.35
2022-10-20T15:50:39.152Z,23.25
2022-10-20T15:52:10.872Z,25.00
2022-10-20T15:53:46.304Z,24.00
2022-10-20T15:55:22.588Z,27.05
2022-10-20T15:56:54.245Z,27.67
2022-10-20T15:58:26.036Z,26.02
2022-10-20T15:59:57.671Z,25.35
2022-10-20T16:01:29.575Z,25.83
2022-10-20T16:03:01.274Z,26.67
2022-10-20T16:04:32.949Z,21.88
2022-10-20T16:06:06.144Z,23.70
2022-10-20T16:07:38.177Z,22.52
2022-10-20T16:09:12.018Z,25.48
2022-10-20T16:10:46.789Z,25.60
2022-10-20T16:12:18.409Z,24.98
2022-10-20T16:13:50.054Z,21.58
2022-10-20T16:15:21.652Z,22.52
2022-10-20T16:16:53.341Z,20.98
2022-10-20T16:18:25.043Z,23.55
2022-10-20T16:19:56.822Z,22.33
2022-10-20T16:21:29.790Z,22.02
2022-10-20T16:23:01.406Z,24.25
2022-10-20T16:24:32.996Z,21.15
2022-10-20T16:26:06.669Z,22.17
2022-10-20T16:27:38.751Z,21.92
2022-10-20T16:29:10.608Z,21.60
2022-10-20T16:30:42.208Z,21.88
2022-10-20T16:32:13.847Z,21.13
2022-10-20T16:33:46.028Z,24.65
2022-10-20T16:35:17.749Z,21.40
2022-10-20T16:36:50.798Z,21.08
2022-10-20T16:38:22.522Z,21.77
2022-10-20T16:39:54.260Z,21.20
2022-10-20T16:41:26.080Z,20.83
2022-10-20T16:42:59.371Z,21.30
2022-10-20T16:44:31.219Z,21.42
2022-10-20T16:46:04.615Z,22.38
2022-10-20T16:47:36.620Z,25.25
2022-10-20T16:49:08.537Z,24.52
2022-10-20T16:50:41.668Z,23.63
2022-10-20T16:52:14.643Z,22.25
2022-10-20T16:53:46.326Z,22.08
2022-10-20T16:55:18.085Z,21.13
2022-10-20T16:56:49.848Z,21.42
2022-10-20T16:58:21.486Z,22.05
2022-10-20T16:59:53.162Z,20.10
2022-10-20T17:01:24.874Z,20.30
2022-10-20T17:02:57.694Z,23.75
2022-10-20T17:04:29.373Z,22.60
2022-10-20T17:06:02.220Z,21.08
2022-10-20T17:07:35.701Z,22.83
2022-10-20T17:09:07.968Z,23.42
2022-10-20T17:10:39.686Z,22.55
2022-10-20T17:12:11.280Z,22.60
2022-10-20T17:13:43.022Z,20.52
2022-10-20T17:15:14.827Z,20.77
2022-10-20T17:16:47.333Z,20.15
2022-10-20T17:18:19.207Z,23.38
2022-10-20T17:19:50.842Z,20.33
2022-10-20T17:21:22.442Z,24.67
2022-10-20T17:22:55.893Z,24.95
2022-10-20T17:24:27.536Z,26.17
2022-10-20T17:26:00.875Z,26.60
2022-10-20T17:27:32.508Z,23.25
2022-10-20T17:29:04.170Z,22.08
2022-10-20T17:30:40.371Z,18.95
2022-10-20T17:32:14.438Z,23.38
2022-10-20T17:33:48.976Z,20.70
2022-10-20T17:35:20.582Z,21.02
2022-10-20T17:36:52.219Z,21.75
2022-10-20T17:38:25.558Z,28.52
2022-10-20T17:39:57.206Z,27.50
2022-10-20T17:41:29.236Z,25.45
2022-10-20T17:43:00.841Z,26.33
2022-10-20T17:44:32.462Z,24.40
2022-10-20T17:46:05.141Z,25.02
2022-10-20T17:47:36.755Z,26.13
2022-10-20T17:49:08.420Z,25.92
2022-10-20T17:50:40.094Z,29.00
2022-10-20T17:52:11.920Z,29.20
2022-10-20T17:53:46.002Z,29.52
2022-10-20T17:55:17.664Z,31.27
2022-10-20T17:56:52.507Z,32.67
2022-10-20T17:58:24.335Z,29.27
2022-10-20T17:59:58.669Z,29.45
2022-10-20T18:01:32.686Z,28.17
2022-10-20T18:03:04.420Z,29.48
2022-10-20T18:04:36.075Z,30.98
2022-10-20T18:06:09.140Z,28.48
2022-10-20T18:07:41.142Z,27.20
2022-10-20T18:09:15.108Z,28.77
2022-10-20T18:10:46.859Z,32.65
2022-10-20T18:12:18.542Z,27.30
2022-10-20T18:13:50.324Z,30.55
2022-10-20T18:15:21.910Z,28.10
2022-10-20T18:16:53.485Z,33.67
2022-10-20T18:18:25.183Z,30.42
2022-10-20T18:20:00.002Z,29.80
2022-10-20T18:21:32.093Z,28.52
2022-10-20T18:23:03.671Z,27.65
2022-10-20T18:24:37.290Z,26.13
2022-10-20T18:26:09.792Z,27.48
2022-10-20T18:27:41.506Z,26.67
2022-10-20T18:29:13.356Z,25.95
2022-10-20T18:30:45.438Z,26.65
2022-10-20T18:32:17.067Z,26.63
2022-10-20T18:33:49.253Z,25.88
2022-10-20T18:35:23.069Z,25.65
2022-10-20T18:36:54.852Z,26.45
2022-10-20T18:38:26.727Z,25.73
2022-10-20T18:40:00.784Z,26.27
2022-10-20T18:41:35.320Z,24.45
2022-10-20T18:43:06.949Z,24.80
2022-10-20T18:44:38.589Z,26.40
2022-10-20T18:46:10.325Z,27.65
2022-10-20T18:47:44.994Z,26.35
2022-10-20T18:49:19.636Z,28.23
2022-10-20T18:50:54.513Z,31.98
2022-10-20T18:52:26.191Z,26.75
2022-10-20T18:53:58.294Z,31.00
2022-10-20T18:55:31.240Z,24.02
2022-10-20T18:57:03.101Z,23.38
2022-10-20T18:58:36.457Z,23.70
2022-10-20T19:00:08.777Z,24.83
2022-10-20T19:01:40.699Z,27.00
2022-10-20T19:03:12.381Z,25.73
2022-10-20T19:04:44.038Z,23.65
2022-10-20T19:06:16.876Z,26.45
2022-10-20T19:07:48.553Z,26.90
2022-10-20T19:09:20.932Z,25.42
2022-10-20T19:10:54.041Z,26.30
2022-10-20T19:12:25.619Z,24.50
2022-10-20T19:13:57.653Z,27.10
2022-10-20T19:15:29.274Z,24.60
2022-10-20T19:17:00.901Z,24.63
2022-10-20T19:18:32.514Z,31.88
2022-10-20T19:20:04.720Z,25.73
2022-10-20T19:21:36.559Z,25.67
2022-10-20T19:23:08.177Z,30.00
2022-10-20T19:24:42.313Z,25.40
2022-10-20T19:26:17.217Z,26.50
2022-10-20T19:27:48.889Z,25.60
2022-10-20T19:29:21.811Z,28.38
2022-10-20T19:30:53.481Z,30.33
2022-10-20T19:32:25.113Z,27.58
2022-10-20T19:33:57.891Z,29.65
2022-10-20T19:35:29.560Z,27.13
2022-10-20T19:37:04.206Z,24.42
2022-10-20T19:38:36.455Z,26.88
2022-10-20T19:40:08.535Z,32.42
2022-10-20T19:41:44.799Z,25.27
2022-10-20T19:43:16.422Z,25.23
2022-10-20T19:44:48.088Z,27.40
2022-10-20T19:46:20.191Z,28.10
2022-10-20T19:47:51.798Z,29.23
2022-10-20T19:49:23.615Z,29.27
2022-10-20T19:50:55.384Z,25.10
2022-10-20T19:52:30.530Z,37.55
2022-10-20T19:54:02.424Z,29.95
2022-10-20T19:55:36.075Z,24.42
2022-10-20T19:57:09.035Z,26.55
2022-10-20T19:58:42.790Z,24.75
2022-10-20T20:00:17.556Z,30.35
2022-10-20T20:01:51.357Z,32.40
2022-10-20T20:03:23.021Z,27.33
2022-10-20T20:04:54.663Z,30.42
2022-10-20T20:06:26.575Z,28.15
2022-10-20T20:07:58.220Z,25.67
2022-10-20T20:09:30.096Z,30.10
2022-10-20T20:11:02.376Z,29.90
2022-10-20T20:12:38.207Z,34.17
2022-10-20T20:14:11.959Z,28.20
2022-10-20T20:15:43.639Z,33.80
2022-10-20T20:17:15.346Z,33.47
2022-10-20T20:18:46.993Z,28.58
2022-10-20T20:20:18.682Z,27.63
2022-10-20T20:21:50.327Z,28.52